Latest Coastal Weather Observations for Newcastle Nobbys

IDN60701

Issued at 4:35 pm EST Tuesday 2 September 2014 (issued every 10 minutes, with the page automatically refreshed every 10 minutes)

About coastal observations | Map of coastal stations | Coastal observations for NSW | Marine services | Other Formats
Station Details ID: 061055 Name: NEWCASTLE NOBBYS SIGNAL STATION AWS Lat: -32.92 Lon: 151.80 Height: 33.0 m
Data from the previous 72 hours. | See also: Recent months at Newcastle Nobbys
Date/Time
EST
Temp

°C
Wind Pressure Rain
since 9am
mm
Weather Cloud Vis
km
Sea
Height
m
Swell
Dir
 
Speed
knots
Gust
knots
hPa Trend Height
m
Period
s
Dir
02/04:30pm 14.5 SSW 6 9 - - 2.6 - - - - - - -
02/04:00pm 15.5 SSW 4 5 - - 2.6 - - - - - - -
02/03:30pm 14.2 S 5 8 - - 2.6 - - - - - - -
02/03:00pm 15.0 W 3 5 - - 2.6 - - - - - - -
02/02:30pm 14.0 W 8 10 - - 2.6 - - - - - - -
02/02:00pm 13.1 W 11 15 - - 2.6 - - - - - - -
02/01:30pm 12.9 WNW 13 17 - - 2.6 - - - - - - -
02/01:00pm 12.9 WNW 7 11 - - 2.6 - - - - - - -
02/12:40pm 13.5 WNW 18 29 - - 1.0 - - - - - - -
02/12:30pm 15.5 WNW 21 29 - - 0.4 - - - - - - -
02/12:29pm 15.9 WNW 19 29 - - 0.2 - - - - - - -
02/12:00pm 18.5 W 3 4 - - 0.0 - - - - - - -
02/11:30am 16.7 NW 6 7 - - 0.0 - - - - - - -
02/11:00am 16.1 NW 9 11 - - 0.0 - - - - - - -
02/10:30am 16.1 NW 6 8 - - 0.0 - - - - - - -
02/10:00am 15.7 NW 4 6 - - 0.0 - - - - - - -
02/09:30am 15.0 N 4 5 - - 0.0 - - - - - - -
02/09:00am 15.1 N 5 6 - - 0.0 - - - - - - -
02/08:30am 15.0 NW 5 7 - - 0.0 - - - - - - -
02/08:00am 15.7 W 7 10 - - 0.0 - - - - - - -
02/07:30am 15.0 W 8 10 - - 0.0 - - - - - - -
02/07:00am 15.0 NW 8 10 - - 0.0 - - - - - - -
02/06:30am 14.6 WNW 5 8 - - 0.0 - - - - - - -
02/06:00am 14.6 NW 10 12 - - 0.0 - - - - - - -
02/05:30am 14.2 NW 6 7 - - 0.0 - - - - - - -
02/05:00am 13.8 N 4 7 - - 0.0 - - - - - - -
02/04:30am 14.2 N 4 7 - - 0.0 - - - - - - -
02/04:00am 14.3 NNW 5 7 - - 0.0 - - - - - - -
02/03:30am 14.5 NNW 3 5 - - 0.0 - - - - - - -
02/03:00am 14.2 NW 4 6 - - 0.0 - - - - - - -
02/02:30am 14.4 N 6 8 - - 0.0 - - - - - - -
02/02:00am 14.7 NNW 7 8 - - 0.0 - - - - - - -
02/01:30am 15.1 NNW 6 7 - - 0.0 - - - - - - -
02/01:00am 15.2 NNW 4 5 - - 0.0 - - - - - - -
02/12:30am 15.4 NNW 4 6 - - 0.0 - - - - - - -
02/12:00am 15.4 N 2 3 - - 0.0 - - - - - - -
 
Date/Time
EST
Temp

°C
Wind Pressure Rain
since 9am
mm
Weather Cloud Vis
km
Sea
Height
m
Swell
Dir
 
Speed
knots
Gust
knots
hPa Trend Height
m
Period
s
Dir
01/11:30pm 15.6 N 5 6 - - 0.0 - - - - - - -
01/11:00pm 15.7 NW 5 6 - - 0.0 - - - - - - -
01/10:30pm 15.7 WNW 5 7 - - 0.0 - - - - - - -
01/10:00pm 15.9 NW 3 4 - - 0.0 - - - - - - -
01/09:30pm 16.7 NW 2 3 - - 0.0 - - - - - - -
01/09:00pm 16.1 N 3 6 - - 0.0 - - - - - - -
01/08:30pm 16.6 N 5 7 - - 0.0 - - - - - - -
01/08:00pm 16.9 NNE 9 10 - - 0.0 - - - - - - -
01/07:30pm 17.1 NNE 10 11 - - 0.0 - - - - - - -
01/07:00pm 17.6 NNE 5 7 - - 0.0 - - - - - - -
01/06:30pm 18.2 NE 7 9 - - 0.0 - - - - - - -
01/06:00pm 20.1 N 6 7 - - 0.0 - - - - - - -
01/05:30pm 20.7 NNW 8 10 - - 0.0 - - - - - - -
01/05:00pm 21.0 NNW 8 10 - - 0.0 - - - - - - -
01/04:30pm 21.7 NW 9 13 - - 0.0 - - - - - - -
01/04:00pm 22.0 NW 9 13 - - 0.0 - - - - - - -
01/03:30pm 22.3 NNW 11 15 - - 0.0 - - - - - - -
01/03:00pm 22.6 NW 13 16 - - 0.0 - - - - - - -
01/02:30pm 21.9 NW 14 21 - - 0.0 - - - - - - -
01/02:00pm 21.8 NW 14 19 - - 0.0 - - - - - - -
01/01:30pm 22.0 NNW 14 18 - - 0.0 - - - - - - -
01/01:00pm 21.9 NNW 17 24 - - 0.0 - - - - - - -
01/12:30pm 21.9 NNW 10 15 - - 0.0 - - - - - - -
01/12:00pm 21.0 NNW 8 13 - - 0.0 - - - - - - -
01/11:30am 20.9 NNW 10 12 - - 0.0 - - - - - - -
01/11:00am 20.0 NNW 8 11 - - 0.0 - - - - - - -
01/10:30am 18.6 NNW 10 13 - - 0.0 - - - - - - -
01/10:00am 17.7 NW 9 13 - - 0.0 - - - - - - -
01/09:30am 16.6 NW 11 16 - - 0.0 - - - - - - -
01/09:00am 15.7 NW 9 12 - - 0.0 - - - - - - -
01/08:30am 14.3 NW 10 12 - - 0.0 - - - - - - -
01/08:00am 12.8 NW 10 11 - - 0.0 - - - - - - -
01/07:30am 11.7 NW 9 11 - - 0.0 - - - - - - -
01/07:00am 11.0 NW 9 10 - - 0.0 - - - - - - -
01/06:30am 10.5 NW 8 9 - - 0.0 - - - - - - -
01/06:00am 10.5 NW 8 9 - - 0.0 - - - - - - -
01/05:30am 10.8 NNW 8 10 - - 0.0 - - - - - - -
01/05:00am 11.0 NNW 8 10 - - 0.0 - - - - - - -
01/04:30am 11.3 NW 8 10 - - 0.0 - - - - - - -
01/04:00am 11.5 NNW 5 6 - - 0.0 - - - - - - -
01/03:30am 11.9 NNW 5 6 - - 0.0 - - - - - - -
01/03:00am 12.2 NNW 4 6 - - 0.0 - - - - - - -
01/02:30am 12.3 NW 2 4 - - 0.0 - - - - - - -
01/02:00am 12.6 NW 2 3 - - 0.0 - - - - - - -
01/01:30am 13.2 NNW 3 3 - - 0.0 - - - - - - -
01/01:00am 13.2 NW 3 3 - - 0.0 - - - - - - -
01/12:30am 13.2 WNW 4 5 - - 0.0 - - - - - - -
01/12:00am 13.5 WNW 3 4 - - 0.0 - - - - - - -
 
Date/Time
EST
Temp

°C
Wind Pressure Rain
since 9am
mm
Weather Cloud Vis
km
Sea
Height
m
Swell
Dir
 
Speed
knots
Gust
knots
hPa Trend Height
m
Period
s
Dir
31/11:30pm 13.5 WNW 4 4 - - 0.0 - - - - - - -
31/11:00pm 13.8 WNW 2 3 - - 0.0 - - - - - - -
31/10:30pm 13.9 WNW 4 6 - - 0.0 - - - - - - -
31/10:00pm 14.4 W 3 4 - - 0.0 - - - - - - -
31/09:30pm 14.7 NW 3 5 - - 0.0 - - - - - - -
31/09:00pm 15.6 WNW 2 4 - - 0.0 - - - - - - -
31/08:30pm 16.2 ESE 4 4 - - 0.0 - - - - - - -
31/08:00pm 16.3 ESE 4 5 - - 0.0 - - - - - - -
31/07:30pm 16.3 ESE 5 5 - - 0.0 - - - - - - -
31/07:00pm 16.5 ESE 4 5 - - 0.0 - - - - - - -
31/06:30pm 16.6 ESE 5 7 - - 0.0 - - - - - - -
31/06:00pm 17.0 SE 7 9 - - 0.0 - - - - - - -
31/05:30pm 17.1 SSE 7 8 - - 0.0 - - - - - - -
31/05:00pm 17.6 SSE 10 12 - - 0.0 - - - - - - -
31/04:30pm 17.5 SSE 12 14 - - 0.0 - - - - - - -
31/04:00pm 17.7 SSE 12 14 - - 0.0 - - - - - - -
31/03:30pm 17.8 S 13 14 - - 0.0 - - - - - - -
31/03:00pm 18.1 S 12 13 - - 0.0 - - - - - - -
31/02:30pm 17.8 S 11 12 - - 0.0 - - - - - - -
31/02:00pm 17.5 S 11 13 - - 0.0 - - - - - - -
31/01:30pm 17.6 S 12 14 - - 0.0 - - - - - - -
31/01:00pm 17.8 S 11 12 - - 0.0 - - - - - - -
31/12:30pm 17.9 S 11 13 - - 0.0 - - - - - - -
31/12:00pm 18.1 S 9 10 - - 0.0 - - - - - - -
31/11:30am 17.4 S 9 10 - - 0.0 - - - - - - -
31/11:00am 17.8 SSW 9 14 - - 0.0 - - - - - - -
31/10:30am 17.9 SSW 9 12 - - 0.0 - - - - - - -
31/10:00am 17.4 SSW 9 13 - - 0.0 - - - - - - -
31/09:30am 17.6 SW 8 12 - - 0.0 - - - - - - -
31/09:00am 16.6 SW 9 14 - - 0.2 - - - - - - -
31/08:30am 16.0 SW 9 14 - - 0.2 - - - - - - -
31/08:00am 15.4 W 5 8 - - 0.2 - - - - - - -
31/07:30am 13.8 W 5 6 - - 0.2 - - - - - - -
31/07:00am 13.5 W 6 8 - - 0.2 - - - - - - -
31/06:30am 13.6 WSW 7 10 - - 0.2 - - - - - - -
31/06:00am 13.6 WSW 8 13 - - 0.2 - - - - - - -
31/05:30am 13.9 WSW 7 12 - - 0.2 - - - - - - -
31/05:00am 14.0 WSW 8 14 - - 0.2 - - - - - - -
31/04:30am 13.8 WSW 9 13 - - 0.2 - - - - - - -
31/04:00am 13.8 WSW 8 12 - - 0.2 - - - - - - -
31/03:30am 13.9 SW 9 14 - - 0.2 - - - - - - -
31/03:00am 14.0 WSW 10 14 - - 0.2 - - - - - - -
31/02:30am 13.9 WSW 8 13 - - 0.2 - - - - - - -
31/02:00am 14.1 WSW 10 16 - - 0.2 - - - - - - -
31/01:30am 14.2 SW 10 17 - - 0.2 - - - - - - -
31/01:00am 14.1 SW 10 16 - - 0.2 - - - - - - -
31/12:30am 14.2 SW 10 17 - - 0.2 - - - - - - -
31/12:00am 14.2 SW 11 18 - - 0.2 - - - - - - -
 
Date/Time
EST
Temp

°C
Wind Pressure Rain
since 9am
mm
Weather Cloud Vis
km
Sea
Height
m
Swell
Dir
 
Speed
knots
Gust
knots
hPa Trend Height
m
Period
s
Dir
30/11:30pm 14.4 SW 11 17 - - 0.2 - - - - - - -
30/11:00pm 14.5 SW 11 17 - - 0.2 - - - - - - -
30/10:30pm 14.4 SW 10 16 - - 0.2 - - - - - - -
30/10:00pm 14.5 SW 9 15 - - 0.2 - - - - - - -
30/09:30pm 14.9 SW 9 14 - - 0.2 - - - - - - -
30/09:00pm 15.1 SW 12 18 - - 0.2 - - - - - - -
30/08:30pm 15.2 SW 10 15 - - 0.2 - - - - - - -
30/08:00pm 15.3 SW 10 16 - - 0.2 - - - - - - -
30/07:30pm 15.2 SW 11 17 - - 0.2 - - - - - - -
30/07:00pm 15.4 SW 11 19 - - 0.2 - - - - - - -
30/06:30pm 15.5 SW 11 17 - - 0.2 - - - - - - -
30/06:00pm 15.7 SW 15 20 - - 0.2 - - - - - - -
30/05:44pm 15.8 SSW 16 26 - - 0.2 - - - - - - -
30/05:30pm 16.0 SSW 17 24 - - 0.2 - - - - - - -
30/05:00pm 16.2 SSW 18 28 - - 0.2 - - - - - - -
30/04:49pm 16.2 SSW 15 25 - - 0.2 - - - - - - -

Other Formats:

Comma delimited format used in spreadsheet applications
http://www.bom.gov.au/fwo/IDN60701/IDN60701.94774.axf

JavaScript Object Notation format (JSON) in row-major order
http://www.bom.gov.au/fwo/IDN60701/IDN60701.94774.json